sensor_id;sensor_type;location;lat;lon;timestamp;P1;durP1;ratioP1;P2;durP2;ratioP2
11230;SDS011;5672;51.060;3.734;2022-09-09T00:00:11;2.80;;;1.90;;
11230;SDS011;5672;51.060;3.734;2022-09-09T00:02:37;2.27;;;2.00;;
11230;SDS011;5672;51.060;3.734;2022-09-09T00:13:05;4.03;;;1.87;;
11230;SDS011;5672;51.060;3.734;2022-09-09T00:23:28;3.63;;;2.13;;
11230;SDS011;5672;51.060;3.734;2022-09-09T00:28:46;2.93;;;2.33;;
11230;SDS011;5672;51.060;3.734;2022-09-09T00:31:15;6.27;;;2.20;;
11230;SDS011;5672;51.060;3.734;2022-09-09T00:33:43;2.90;;;2.20;;
11230;SDS011;5672;51.060;3.734;2022-09-09T00:36:12;2.77;;;2.23;;
11230;SDS011;5672;51.060;3.734;2022-09-09T00:38:40;6.17;;;2.30;;
11230;SDS011;5672;51.060;3.734;2022-09-09T00:43:37;2.40;;;1.90;;
11230;SDS011;5672;51.060;3.734;2022-09-09T00:56:18;2.33;;;2.10;;
11230;SDS011;5672;51.060;3.734;2022-09-09T00:58:57;4.47;;;2.03;;
11230;SDS011;5672;51.060;3.734;2022-09-09T01:01:26;2.83;;;1.70;;
11230;SDS011;5672;51.060;3.734;2022-09-09T01:03:56;3.87;;;1.97;;
11230;SDS011;5672;51.060;3.734;2022-09-09T01:06:43;2.57;;;1.97;;
11230;SDS011;5672;51.060;3.734;2022-09-09T01:09:27;3.33;;;2.30;;
11230;SDS011;5672;51.060;3.734;2022-09-09T01:17:04;4.73;;;2.07;;
11230;SDS011;5672;51.060;3.734;2022-09-09T01:19:40;4.23;;;1.97;;
11230;SDS011;5672;51.060;3.734;2022-09-09T01:22:12;3.07;;;2.00;;
11230;SDS011;5672;51.060;3.734;2022-09-09T01:24:42;5.83;;;2.10;;
11230;SDS011;5672;51.060;3.734;2022-09-09T01:27:12;4.00;;;2.00;;
11230;SDS011;5672;51.060;3.734;2022-09-09T01:29:39;2.80;;;1.90;;
11230;SDS011;5672;51.060;3.734;2022-09-09T01:34:51;3.13;;;1.70;;
11230;SDS011;5672;51.060;3.734;2022-09-09T01:37:17;4.60;;;1.90;;
11230;SDS011;5672;51.060;3.734;2022-09-09T01:39:43;3.67;;;1.90;;
11230;SDS011;5672;51.060;3.734;2022-09-09T01:42:12;3.80;;;1.83;;
11230;SDS011;5672;51.060;3.734;2022-09-09T01:44:39;2.80;;;1.93;;
11230;SDS011;5672;51.060;3.734;2022-09-09T01:47:05;3.53;;;1.90;;
11230;SDS011;5672;51.060;3.734;2022-09-09T01:49:31;7.03;;;2.27;;
11230;SDS011;5672;51.060;3.734;2022-09-09T01:51:58;3.43;;;2.47;;
11230;SDS011;5672;51.060;3.734;2022-09-09T01:54:25;4.07;;;1.87;;
11230;SDS011;5672;51.060;3.734;2022-09-09T01:57:02;3.90;;;2.10;;
11230;SDS011;5672;51.060;3.734;2022-09-09T02:04:38;6.80;;;2.57;;
11230;SDS011;5672;51.060;3.734;2022-09-09T02:07:06;2.47;;;1.90;;
11230;SDS011;5672;51.060;3.734;2022-09-09T02:09:35;2.50;;;2.00;;
11230;SDS011;5672;51.060;3.734;2022-09-09T02:12:05;4.60;;;2.53;;
11230;SDS011;5672;51.060;3.734;2022-09-09T02:14:36;5.97;;;2.63;;
11230;SDS011;5672;51.060;3.734;2022-09-09T02:17:11;3.67;;;2.30;;
11230;SDS011;5672;51.060;3.734;2022-09-09T02:19:42;3.10;;;2.13;;
11230;SDS011;5672;51.060;3.734;2022-09-09T02:22:10;5.53;;;2.27;;
11230;SDS011;5672;51.060;3.734;2022-09-09T02:24:38;4.50;;;2.40;;
11230;SDS011;5672;51.060;3.734;2022-09-09T02:27:05;4.23;;;2.50;;
11230;SDS011;5672;51.060;3.734;2022-09-09T02:29:34;3.17;;;2.40;;
11230;SDS011;5672;51.060;3.734;2022-09-09T02:32:03;3.03;;;2.03;;
11230;SDS011;5672;51.060;3.734;2022-09-09T02:34:31;5.23;;;2.40;;
11230;SDS011;5672;51.060;3.734;2022-09-09T02:36:58;4.90;;;1.90;;
11230;SDS011;5672;51.060;3.734;2022-09-09T02:39:25;6.93;;;2.60;;
11230;SDS011;5672;51.060;3.734;2022-09-09T02:41:51;3.80;;;2.10;;
11230;SDS011;5672;51.060;3.734;2022-09-09T02:44:18;3.47;;;1.80;;
11230;SDS011;5672;51.060;3.734;2022-09-09T02:49:33;4.90;;;2.33;;
11230;SDS011;5672;51.060;3.734;2022-09-09T02:52:02;3.67;;;2.47;;
11230;SDS011;5672;51.060;3.734;2022-09-09T02:54:31;5.70;;;2.40;;
11230;SDS011;5672;51.060;3.734;2022-09-09T02:57:19;5.17;;;2.40;;
11230;SDS011;5672;51.060;3.734;2022-09-09T02:59:44;5.57;;;2.33;;
11230;SDS011;5672;51.060;3.734;2022-09-09T03:02:10;5.90;;;2.50;;
11230;SDS011;5672;51.060;3.734;2022-09-09T03:04:38;5.63;;;2.10;;
11230;SDS011;5672;51.060;3.734;2022-09-09T03:07:04;11.93;;;3.33;;
11230;SDS011;5672;51.060;3.734;2022-09-09T03:09:30;10.17;;;4.87;;
11230;SDS011;5672;51.060;3.734;2022-09-09T03:11:57;11.20;;;5.07;;
11230;SDS011;5672;51.060;3.734;2022-09-09T03:14:23;8.77;;;4.63;;
11230;SDS011;5672;51.060;3.734;2022-09-09T03:16:50;11.63;;;5.07;;
11230;SDS011;5672;51.060;3.734;2022-09-09T03:19:16;10.87;;;4.70;;
11230;SDS011;5672;51.060;3.734;2022-09-09T03:21:43;12.00;;;5.23;;
11230;SDS011;5672;51.060;3.734;2022-09-09T03:24:10;11.23;;;5.10;;
11230;SDS011;5672;51.060;3.734;2022-09-09T03:26:36;13.70;;;6.13;;
11230;SDS011;5672;51.060;3.734;2022-09-09T03:29:02;10.13;;;4.50;;
11230;SDS011;5672;51.060;3.734;2022-09-09T03:31:31;12.47;;;4.90;;
11230;SDS011;5672;51.060;3.734;2022-09-09T03:33:57;12.53;;;5.53;;
11230;SDS011;5672;51.060;3.734;2022-09-09T03:36:24;11.10;;;5.43;;
11230;SDS011;5672;51.060;3.734;2022-09-09T03:38:51;10.70;;;4.97;;
11230;SDS011;5672;51.060;3.734;2022-09-09T03:41:17;10.50;;;4.83;;
11230;SDS011;5672;51.060;3.734;2022-09-09T03:43:43;11.17;;;5.83;;
11230;SDS011;5672;51.060;3.734;2022-09-09T03:46:09;9.67;;;4.60;;
11230;SDS011;5672;51.060;3.734;2022-09-09T03:48:35;9.67;;;4.53;;
11230;SDS011;5672;51.060;3.734;2022-09-09T03:51:01;14.73;;;5.87;;
11230;SDS011;5672;51.060;3.734;2022-09-09T03:53:28;15.97;;;5.80;;
11230;SDS011;5672;51.060;3.734;2022-09-09T03:55:55;12.30;;;5.23;;
11230;SDS011;5672;51.060;3.734;2022-09-09T03:58:23;10.47;;;4.97;;
11230;SDS011;5672;51.060;3.734;2022-09-09T04:00:58;10.47;;;4.20;;
11230;SDS011;5672;51.060;3.734;2022-09-09T04:03:24;9.63;;;4.60;;
11230;SDS011;5672;51.060;3.734;2022-09-09T04:05:53;12.77;;;5.30;;
11230;SDS011;5672;51.060;3.734;2022-09-09T04:08:20;12.40;;;4.60;;
11230;SDS011;5672;51.060;3.734;2022-09-09T04:10:47;12.17;;;5.87;;
11230;SDS011;5672;51.060;3.734;2022-09-09T04:13:14;11.43;;;5.73;;
11230;SDS011;5672;51.060;3.734;2022-09-09T04:15:42;9.93;;;4.30;;
11230;SDS011;5672;51.060;3.734;2022-09-09T04:18:09;16.40;;;6.37;;
11230;SDS011;5672;51.060;3.734;2022-09-09T04:20:35;11.00;;;5.53;;
11230;SDS011;5672;51.060;3.734;2022-09-09T04:23:22;13.57;;;5.80;;
11230;SDS011;5672;51.060;3.734;2022-09-09T04:25:49;7.80;;;3.90;;
11230;SDS011;5672;51.060;3.734;2022-09-09T04:28:16;8.13;;;4.70;;
11230;SDS011;5672;51.060;3.734;2022-09-09T04:30:43;12.27;;;4.20;;
11230;SDS011;5672;51.060;3.734;2022-09-09T04:33:09;7.63;;;3.90;;
11230;SDS011;5672;51.060;3.734;2022-09-09T04:35:36;11.33;;;5.10;;
11230;SDS011;5672;51.060;3.734;2022-09-09T04:38:04;10.57;;;4.87;;
11230;SDS011;5672;51.060;3.734;2022-09-09T04:40:32;14.40;;;5.33;;
11230;SDS011;5672;51.060;3.734;2022-09-09T04:43:02;11.53;;;5.13;;
11230;SDS011;5672;51.060;3.734;2022-09-09T04:45:29;16.33;;;6.00;;
11230;SDS011;5672;51.060;3.734;2022-09-09T04:47:56;12.27;;;6.27;;
11230;SDS011;5672;51.060;3.734;2022-09-09T04:50:22;13.33;;;5.40;;
11230;SDS011;5672;51.060;3.734;2022-09-09T04:52:48;12.37;;;6.20;;
11230;SDS011;5672;51.060;3.734;2022-09-09T04:55:14;16.67;;;5.70;;
11230;SDS011;5672;51.060;3.734;2022-09-09T04:57:40;12.00;;;4.73;;
11230;SDS011;5672;51.060;3.734;2022-09-09T05:00:06;12.13;;;4.70;;
11230;SDS011;5672;51.060;3.734;2022-09-09T05:02:33;11.00;;;4.20;;
11230;SDS011;5672;51.060;3.734;2022-09-09T05:05:03;12.70;;;4.00;;
11230;SDS011;5672;51.060;3.734;2022-09-09T05:07:29;9.97;;;3.80;;
11230;SDS011;5672;51.060;3.734;2022-09-09T05:09:56;8.80;;;4.63;;
11230;SDS011;5672;51.060;3.734;2022-09-09T05:12:22;10.40;;;5.00;;
11230;SDS011;5672;51.060;3.734;2022-09-09T05:14:50;11.43;;;4.00;;
11230;SDS011;5672;51.060;3.734;2022-09-09T05:17:16;8.30;;;4.10;;
11230;SDS011;5672;51.060;3.734;2022-09-09T05:19:42;12.00;;;5.17;;
11230;SDS011;5672;51.060;3.734;2022-09-09T05:22:09;8.90;;;4.27;;
11230;SDS011;5672;51.060;3.734;2022-09-09T05:24:36;12.73;;;4.70;;
11230;SDS011;5672;51.060;3.734;2022-09-09T05:27:03;13.03;;;6.40;;
11230;SDS011;5672;51.060;3.734;2022-09-09T05:29:31;11.63;;;4.80;;
11230;SDS011;5672;51.060;3.734;2022-09-09T05:31:58;12.63;;;4.37;;
11230;SDS011;5672;51.060;3.734;2022-09-09T05:34:24;10.03;;;4.50;;
11230;SDS011;5672;51.060;3.734;2022-09-09T05:36:50;9.63;;;4.38;;
11230;SDS011;5672;51.060;3.734;2022-09-09T05:39:17;12.10;;;5.15;;
11230;SDS011;5672;51.060;3.734;2022-09-09T05:41:43;9.90;;;5.27;;
11230;SDS011;5672;51.060;3.734;2022-09-09T05:44:09;13.00;;;4.27;;
11230;SDS011;5672;51.060;3.734;2022-09-09T05:46:36;10.10;;;3.97;;
11230;SDS011;5672;51.060;3.734;2022-09-09T05:49:02;10.03;;;4.73;;
11230;SDS011;5672;51.060;3.734;2022-09-09T05:51:30;10.47;;;4.80;;
11230;SDS011;5672;51.060;3.734;2022-09-09T05:53:56;9.30;;;3.77;;
11230;SDS011;5672;51.060;3.734;2022-09-09T05:56:24;9.43;;;4.10;;
11230;SDS011;5672;51.060;3.734;2022-09-09T05:58:50;9.93;;;3.63;;
11230;SDS011;5672;51.060;3.734;2022-09-09T06:01:19;9.83;;;3.80;;
11230;SDS011;5672;51.060;3.734;2022-09-09T06:03:46;9.73;;;3.67;;
11230;SDS011;5672;51.060;3.734;2022-09-09T06:06:13;11.93;;;5.00;;
11230;SDS011;5672;51.060;3.734;2022-09-09T06:08:41;11.77;;;5.13;;
11230;SDS011;5672;51.060;3.734;2022-09-09T06:11:16;12.40;;;4.53;;
11230;SDS011;5672;51.060;3.734;2022-09-09T06:13:42;13.03;;;4.87;;
11230;SDS011;5672;51.060;3.734;2022-09-09T06:16:12;15.97;;;5.17;;
11230;SDS011;5672;51.060;3.734;2022-09-09T06:18:39;10.70;;;4.70;;
11230;SDS011;5672;51.060;3.734;2022-09-09T06:21:06;13.57;;;4.60;;
11230;SDS011;5672;51.060;3.734;2022-09-09T06:23:33;12.93;;;4.80;;
11230;SDS011;5672;51.060;3.734;2022-09-09T06:26:15;12.60;;;4.60;;
11230;SDS011;5672;51.060;3.734;2022-09-09T06:28:43;13.80;;;5.30;;
11230;SDS011;5672;51.060;3.734;2022-09-09T06:31:10;12.83;;;5.83;;
11230;SDS011;5672;51.060;3.734;2022-09-09T06:33:38;12.90;;;5.30;;
11230;SDS011;5672;51.060;3.734;2022-09-09T06:36:06;15.47;;;5.27;;
11230;SDS011;5672;51.060;3.734;2022-09-09T06:38:32;12.63;;;4.73;;
11230;SDS011;5672;51.060;3.734;2022-09-09T06:40:59;19.13;;;5.67;;
11230;SDS011;5672;51.060;3.734;2022-09-09T06:43:26;13.90;;;5.47;;
11230;SDS011;5672;51.060;3.734;2022-09-09T06:45:53;10.67;;;4.90;;
11230;SDS011;5672;51.060;3.734;2022-09-09T06:48:19;13.60;;;5.77;;
11230;SDS011;5672;51.060;3.734;2022-09-09T06:50:45;15.83;;;5.37;;
11230;SDS011;5672;51.060;3.734;2022-09-09T06:53:11;12.70;;;5.30;;
11230;SDS011;5672;51.060;3.734;2022-09-09T06:55:37;11.93;;;5.07;;
11230;SDS011;5672;51.060;3.734;2022-09-09T06:58:08;16.67;;;5.60;;
11230;SDS011;5672;51.060;3.734;2022-09-09T07:00:34;17.63;;;5.80;;
11230;SDS011;5672;51.060;3.734;2022-09-09T07:03:02;10.97;;;5.77;;
11230;SDS011;5672;51.060;3.734;2022-09-09T07:05:29;12.33;;;5.47;;
11230;SDS011;5672;51.060;3.734;2022-09-09T07:07:55;18.80;;;6.27;;
11230;SDS011;5672;51.060;3.734;2022-09-09T07:10:21;13.13;;;5.40;;
11230;SDS011;5672;51.060;3.734;2022-09-09T07:12:50;12.20;;;5.18;;
11230;SDS011;5672;51.060;3.734;2022-09-09T07:15:17;9.77;;;4.40;;
11230;SDS011;5672;51.060;3.734;2022-09-09T07:17:43;13.03;;;5.13;;
11230;SDS011;5672;51.060;3.734;2022-09-09T07:20:10;11.80;;;4.43;;
11230;SDS011;5672;51.060;3.734;2022-09-09T07:22:37;16.13;;;4.53;;
11230;SDS011;5672;51.060;3.734;2022-09-09T07:25:03;11.70;;;4.77;;
11230;SDS011;5672;51.060;3.734;2022-09-09T07:27:30;11.20;;;4.60;;
11230;SDS011;5672;51.060;3.734;2022-09-09T07:29:56;11.27;;;5.07;;
11230;SDS011;5672;51.060;3.734;2022-09-09T07:32:22;11.07;;;5.40;;
11230;SDS011;5672;51.060;3.734;2022-09-09T07:34:50;12.73;;;5.27;;
11230;SDS011;5672;51.060;3.734;2022-09-09T07:37:16;15.00;;;5.70;;
11230;SDS011;5672;51.060;3.734;2022-09-09T07:39:42;10.07;;;4.37;;
11230;SDS011;5672;51.060;3.734;2022-09-09T07:42:09;13.83;;;4.27;;
11230;SDS011;5672;51.060;3.734;2022-09-09T07:44:40;11.70;;;4.50;;
11230;SDS011;5672;51.060;3.734;2022-09-09T07:47:06;10.73;;;4.33;;
11230;SDS011;5672;51.060;3.734;2022-09-09T07:49:32;12.50;;;4.50;;
11230;SDS011;5672;51.060;3.734;2022-09-09T07:51:59;11.67;;;3.93;;
11230;SDS011;5672;51.060;3.734;2022-09-09T07:54:25;11.37;;;3.80;;
11230;SDS011;5672;51.060;3.734;2022-09-09T07:56:51;9.33;;;3.67;;
11230;SDS011;5672;51.060;3.734;2022-09-09T07:59:18;7.43;;;4.20;;
11230;SDS011;5672;51.060;3.734;2022-09-09T08:01:48;10.67;;;4.30;;
11230;SDS011;5672;51.060;3.734;2022-09-09T08:04:18;11.10;;;4.07;;
11230;SDS011;5672;51.060;3.734;2022-09-09T08:06:45;11.17;;;3.97;;
11230;SDS011;5672;51.060;3.734;2022-09-09T08:09:12;8.20;;;3.67;;
11230;SDS011;5672;51.060;3.734;2022-09-09T08:11:38;9.27;;;3.47;;
11230;SDS011;5672;51.060;3.734;2022-09-09T08:14:07;11.63;;;3.63;;
11230;SDS011;5672;51.060;3.734;2022-09-09T08:16:34;10.37;;;3.97;;
11230;SDS011;5672;51.060;3.734;2022-09-09T08:19:01;13.47;;;3.90;;
11230;SDS011;5672;51.060;3.734;2022-09-09T08:21:28;7.90;;;3.30;;
11230;SDS011;5672;51.060;3.734;2022-09-09T08:23:55;7.20;;;3.53;;
11230;SDS011;5672;51.060;3.734;2022-09-09T08:26:25;7.80;;;4.10;;
11230;SDS011;5672;51.060;3.734;2022-09-09T08:28:53;11.03;;;4.43;;
11230;SDS011;5672;51.060;3.734;2022-09-09T08:31:24;9.90;;;4.20;;
11230;SDS011;5672;51.060;3.734;2022-09-09T08:33:51;9.90;;;3.23;;
11230;SDS011;5672;51.060;3.734;2022-09-09T08:36:18;9.27;;;4.10;;
11230;SDS011;5672;51.060;3.734;2022-09-09T08:38:48;6.47;;;3.23;;
11230;SDS011;5672;51.060;3.734;2022-09-09T08:44:14;8.00;;;3.10;;
11230;SDS011;5672;51.060;3.734;2022-09-09T08:52:18;7.27;;;3.80;;
11230;SDS011;5672;51.060;3.734;2022-09-09T08:54:45;6.93;;;2.40;;
11230;SDS011;5672;51.060;3.734;2022-09-09T08:57:14;7.73;;;2.50;;
11230;SDS011;5672;51.060;3.734;2022-09-09T08:59:44;9.03;;;2.87;;
11230;SDS011;5672;51.060;3.734;2022-09-09T09:04:49;7.40;;;3.07;;
11230;SDS011;5672;51.060;3.734;2022-09-09T09:12:18;8.43;;;2.90;;
11230;SDS011;5672;51.060;3.734;2022-09-09T09:14:45;5.80;;;2.40;;
11230;SDS011;5672;51.060;3.734;2022-09-09T09:17:13;7.27;;;2.60;;
11230;SDS011;5672;51.060;3.734;2022-09-09T09:19:40;6.83;;;2.20;;
11230;SDS011;5672;51.060;3.734;2022-09-09T09:22:17;8.07;;;2.83;;
11230;SDS011;5672;51.060;3.734;2022-09-09T09:27:25;7.33;;;2.70;;
11230;SDS011;5672;51.060;3.734;2022-09-09T09:29:56;5.43;;;2.30;;
11230;SDS011;5672;51.060;3.734;2022-09-09T09:32:23;6.37;;;2.80;;
11230;SDS011;5672;51.060;3.734;2022-09-09T09:34:51;7.27;;;3.10;;
11230;SDS011;5672;51.060;3.734;2022-09-09T09:37:23;9.43;;;2.73;;
11230;SDS011;5672;51.060;3.734;2022-09-09T09:39:53;6.57;;;2.30;;
11230;SDS011;5672;51.060;3.734;2022-09-09T09:42:19;2.83;;;1.80;;
11230;SDS011;5672;51.060;3.734;2022-09-09T09:44:45;4.47;;;2.77;;
11230;SDS011;5672;51.060;3.734;2022-09-09T09:47:15;5.03;;;2.23;;
11230;SDS011;5672;51.060;3.734;2022-09-09T09:49:59;6.90;;;2.60;;
11230;SDS011;5672;51.060;3.734;2022-09-09T09:52:30;6.03;;;2.17;;
11230;SDS011;5672;51.060;3.734;2022-09-09T09:54:57;4.10;;;2.47;;
11230;SDS011;5672;51.060;3.734;2022-09-09T09:57:28;6.40;;;2.30;;
11230;SDS011;5672;51.060;3.734;2022-09-09T10:00:12;2.87;;;1.73;;
11230;SDS011;5672;51.060;3.734;2022-09-09T10:02:40;7.23;;;2.10;;
11230;SDS011;5672;51.060;3.734;2022-09-09T10:05:18;4.00;;;2.10;;
11230;SDS011;5672;51.060;3.734;2022-09-09T10:07:45;5.47;;;1.97;;
11230;SDS011;5672;51.060;3.734;2022-09-09T10:10:26;4.33;;;1.83;;
11230;SDS011;5672;51.060;3.734;2022-09-09T10:25:40;4.87;;;2.20;;
11230;SDS011;5672;51.060;3.734;2022-09-09T10:33:41;5.40;;;2.60;;
11230;SDS011;5672;51.060;3.734;2022-09-09T10:39:35;4.20;;;2.30;;
11230;SDS011;5672;51.060;3.734;2022-09-09T10:41:39;5.67;;;1.80;;
11230;SDS011;5672;51.060;3.734;2022-09-09T10:44:30;5.37;;;2.07;;
11230;SDS011;5672;51.060;3.734;2022-09-09T10:49:43;4.20;;;1.80;;
11230;SDS011;5672;51.060;3.734;2022-09-09T10:54:58;4.23;;;2.00;;
11230;SDS011;5672;51.060;3.734;2022-09-09T10:59:54;3.37;;;2.00;;
11230;SDS011;5672;51.060;3.734;2022-09-09T11:02:28;7.30;;;2.10;;
11230;SDS011;5672;51.060;3.734;2022-09-09T11:04:55;4.30;;;2.00;;
11230;SDS011;5672;51.060;3.734;2022-09-09T11:07:25;5.13;;;2.20;;
11230;SDS011;5672;51.060;3.734;2022-09-09T11:09:53;3.13;;;2.30;;
11230;SDS011;5672;51.060;3.734;2022-09-09T11:12:21;3.77;;;1.93;;
11230;SDS011;5672;51.060;3.734;2022-09-09T11:14:56;4.20;;;2.30;;
11230;SDS011;5672;51.060;3.734;2022-09-09T11:17:31;5.37;;;2.50;;
11230;SDS011;5672;51.060;3.734;2022-09-09T11:19:59;2.93;;;1.80;;
11230;SDS011;5672;51.060;3.734;2022-09-09T11:30:05;2.33;;;1.70;;
11230;SDS011;5672;51.060;3.734;2022-09-09T11:38:09;4.60;;;1.57;;
11230;SDS011;5672;51.060;3.734;2022-09-09T11:40:37;5.33;;;1.90;;
11230;SDS011;5672;51.060;3.734;2022-09-09T11:43:05;3.33;;;1.70;;
11230;SDS011;5672;51.060;3.734;2022-09-09T11:45:33;5.27;;;1.30;;
11230;SDS011;5672;51.060;3.734;2022-09-09T11:48:00;2.07;;;1.17;;
11230;SDS011;5672;51.060;3.734;2022-09-09T11:50:29;2.97;;;1.50;;
11230;SDS011;5672;51.060;3.734;2022-09-09T11:55:40;5.43;;;1.40;;
11230;SDS011;5672;51.060;3.734;2022-09-09T11:58:14;2.00;;;1.43;;
11230;SDS011;5672;51.060;3.734;2022-09-09T12:00:42;3.70;;;1.60;;
11230;SDS011;5672;51.060;3.734;2022-09-09T12:05:54;2.07;;;1.40;;
11230;SDS011;5672;51.060;3.734;2022-09-09T12:08:24;1.30;;;1.20;;
11230;SDS011;5672;51.060;3.734;2022-09-09T12:10:54;7.13;;;3.47;;
11230;SDS011;5672;51.060;3.734;2022-09-09T12:13:22;235.33;;;52.53;;
11230;SDS011;5672;51.060;3.734;2022-09-09T12:18:15;5.15;;;2.70;;
11230;SDS011;5672;51.060;3.734;2022-09-09T12:20:50;5.07;;;2.13;;
11230;SDS011;5672;51.060;3.734;2022-09-09T12:23:22;5.07;;;2.10;;
11230;SDS011;5672;51.060;3.734;2022-09-09T12:28:18;3.23;;;1.97;;
11230;SDS011;5672;51.060;3.734;2022-09-09T12:33:16;4.40;;;2.20;;
11230;SDS011;5672;51.060;3.734;2022-09-09T12:35:43;4.33;;;1.70;;
11230;SDS011;5672;51.060;3.734;2022-09-09T12:38:14;4.87;;;1.83;;
11230;SDS011;5672;51.060;3.734;2022-09-09T12:40:41;2.73;;;1.93;;
11230;SDS011;5672;51.060;3.734;2022-09-09T12:43:20;4.73;;;1.90;;
11230;SDS011;5672;51.060;3.734;2022-09-09T12:45:47;2.70;;;1.50;;
11230;SDS011;5672;51.060;3.734;2022-09-09T12:48:15;2.90;;;1.67;;
11230;SDS011;5672;51.060;3.734;2022-09-09T12:50:48;3.75;;;1.65;;
11230;SDS011;5672;51.060;3.734;2022-09-09T12:55:55;3.17;;;1.30;;
11230;SDS011;5672;51.060;3.734;2022-09-09T12:58:21;2.20;;;1.43;;
11230;SDS011;5672;51.060;3.734;2022-09-09T13:00:51;1.97;;;1.67;;
11230;SDS011;5672;51.060;3.734;2022-09-09T13:03:18;2.20;;;1.63;;
11230;SDS011;5672;51.060;3.734;2022-09-09T13:05:46;3.13;;;1.97;;
11230;SDS011;5672;51.060;3.734;2022-09-09T13:08:12;2.20;;;1.50;;
11230;SDS011;5672;51.060;3.734;2022-09-09T13:13:14;1.83;;;1.60;;
11230;SDS011;5672;51.060;3.734;2022-09-09T13:15:47;2.93;;;1.70;;
11230;SDS011;5672;51.060;3.734;2022-09-09T13:18:20;1.30;;;1.17;;
11230;SDS011;5672;51.060;3.734;2022-09-09T13:20:47;2.90;;;1.80;;
11230;SDS011;5672;51.060;3.734;2022-09-09T13:23:14;1.97;;;1.63;;
11230;SDS011;5672;51.060;3.734;2022-09-09T13:25:42;2.57;;;1.60;;
11230;SDS011;5672;51.060;3.734;2022-09-09T13:28:20;4.17;;;1.80;;
11230;SDS011;5672;51.060;3.734;2022-09-09T13:30:54;4.07;;;1.90;;
11230;SDS011;5672;51.060;3.734;2022-09-09T13:33:24;3.07;;;1.70;;
11230;SDS011;5672;51.060;3.734;2022-09-09T13:35:58;3.37;;;1.27;;
11230;SDS011;5672;51.060;3.734;2022-09-09T13:38:24;2.13;;;1.50;;
11230;SDS011;5672;51.060;3.734;2022-09-09T13:43:21;2.60;;;1.50;;
11230;SDS011;5672;51.060;3.734;2022-09-09T13:45:58;2.37;;;1.30;;
11230;SDS011;5672;51.060;3.734;2022-09-09T13:48:25;5.30;;;1.60;;
11230;SDS011;5672;51.060;3.734;2022-09-09T13:51:02;2.47;;;1.60;;
11230;SDS011;5672;51.060;3.734;2022-09-09T13:53:30;3.00;;;1.60;;
11230;SDS011;5672;51.060;3.734;2022-09-09T13:55:56;3.30;;;1.50;;
11230;SDS011;5672;51.060;3.734;2022-09-09T13:58:22;2.47;;;1.50;;
11230;SDS011;5672;51.060;3.734;2022-09-09T14:00:50;6.47;;;1.70;;
11230;SDS011;5672;51.060;3.734;2022-09-09T14:03:16;1.67;;;1.50;;
11230;SDS011;5672;51.060;3.734;2022-09-09T14:05:43;3.00;;;1.40;;
11230;SDS011;5672;51.060;3.734;2022-09-09T14:08:10;2.40;;;1.43;;
11230;SDS011;5672;51.060;3.734;2022-09-09T14:10:40;3.00;;;1.70;;
11230;SDS011;5672;51.060;3.734;2022-09-09T14:13:06;1.67;;;1.50;;
11230;SDS011;5672;51.060;3.734;2022-09-09T14:15:33;4.43;;;1.27;;
11230;SDS011;5672;51.060;3.734;2022-09-09T14:17:59;3.03;;;1.40;;
11230;SDS011;5672;51.060;3.734;2022-09-09T14:20:25;2.77;;;1.33;;
11230;SDS011;5672;51.060;3.734;2022-09-09T14:22:51;2.63;;;1.50;;
11230;SDS011;5672;51.060;3.734;2022-09-09T14:25:18;2.77;;;1.33;;
11230;SDS011;5672;51.060;3.734;2022-09-09T14:27:44;4.90;;;1.50;;
11230;SDS011;5672;51.060;3.734;2022-09-09T14:30:11;1.90;;;1.20;;
11230;SDS011;5672;51.060;3.734;2022-09-09T14:32:37;1.60;;;1.30;;
11230;SDS011;5672;51.060;3.734;2022-09-09T14:35:03;3.30;;;1.40;;
11230;SDS011;5672;51.060;3.734;2022-09-09T14:37:29;2.33;;;1.47;;
11230;SDS011;5672;51.060;3.734;2022-09-09T14:39:56;3.93;;;1.67;;
11230;SDS011;5672;51.060;3.734;2022-09-09T14:42:22;401.57;;;212.23;;
11230;SDS011;5672;51.060;3.734;2022-09-09T14:44:48;393.07;;;263.73;;
11230;SDS011;5672;51.060;3.734;2022-09-09T14:47:14;555.40;;;343.53;;
11230;SDS011;5672;51.060;3.734;2022-09-09T14:49:40;451.10;;;339.53;;
11230;SDS011;5672;51.060;3.734;2022-09-09T14:52:06;106.17;;;53.37;;
11230;SDS011;5672;51.060;3.734;2022-09-09T14:54:33;24.70;;;12.20;;
11230;SDS011;5672;51.060;3.734;2022-09-09T14:56:59;7.70;;;4.97;;
11230;SDS011;5672;51.060;3.734;2022-09-09T14:59:25;5.87;;;3.43;;
11230;SDS011;5672;51.060;3.734;2022-09-09T15:01:51;6.30;;;3.77;;
11230;SDS011;5672;51.060;3.734;2022-09-09T15:04:18;4.33;;;2.60;;
11230;SDS011;5672;51.060;3.734;2022-09-09T15:06:45;3.50;;;1.83;;
11230;SDS011;5672;51.060;3.734;2022-09-09T15:09:13;2.70;;;1.63;;
11230;SDS011;5672;51.060;3.734;2022-09-09T15:11:39;9.63;;;4.27;;
11230;SDS011;5672;51.060;3.734;2022-09-09T15:14:06;4.27;;;2.27;;
11230;SDS011;5672;51.060;3.734;2022-09-09T15:16:32;3.20;;;1.80;;
11230;SDS011;5672;51.060;3.734;2022-09-09T15:18:59;1.93;;;1.83;;
11230;SDS011;5672;51.060;3.734;2022-09-09T15:21:26;3.83;;;1.90;;
11230;SDS011;5672;51.060;3.734;2022-09-09T15:23:53;2.90;;;2.00;;
11230;SDS011;5672;51.060;3.734;2022-09-09T15:26:19;3.50;;;1.70;;
11230;SDS011;5672;51.060;3.734;2022-09-09T15:28:45;2.60;;;1.70;;
11230;SDS011;5672;51.060;3.734;2022-09-09T15:31:13;3.40;;;1.97;;
11230;SDS011;5672;51.060;3.734;2022-09-09T15:33:40;1.57;;;1.47;;
11230;SDS011;5672;51.060;3.734;2022-09-09T15:36:16;2.63;;;1.60;;
11230;SDS011;5672;51.060;3.734;2022-09-09T15:38:42;3.20;;;1.90;;
11230;SDS011;5672;51.060;3.734;2022-09-09T15:41:09;5.97;;;2.30;;
11230;SDS011;5672;51.060;3.734;2022-09-09T15:43:35;3.20;;;1.90;;
11230;SDS011;5672;51.060;3.734;2022-09-09T15:48:43;1.67;;;1.50;;
11230;SDS011;5672;51.060;3.734;2022-09-09T15:51:09;3.60;;;1.90;;
11230;SDS011;5672;51.060;3.734;2022-09-09T15:53:35;2.90;;;1.60;;
11230;SDS011;5672;51.060;3.734;2022-09-09T15:56:02;3.30;;;1.70;;
11230;SDS011;5672;51.060;3.734;2022-09-09T15:58:31;2.07;;;1.50;;
11230;SDS011;5672;51.060;3.734;2022-09-09T16:01:03;3.20;;;1.80;;
11230;SDS011;5672;51.060;3.734;2022-09-09T16:03:40;2.57;;;1.60;;
11230;SDS011;5672;51.060;3.734;2022-09-09T16:06:11;3.20;;;2.03;;
11230;SDS011;5672;51.060;3.734;2022-09-09T16:08:39;4.10;;;2.00;;
11230;SDS011;5672;51.060;3.734;2022-09-09T16:11:06;1.80;;;1.70;;
11230;SDS011;5672;51.060;3.734;2022-09-09T16:13:34;1.70;;;1.60;;
11230;SDS011;5672;51.060;3.734;2022-09-09T16:16:00;5.37;;;1.97;;
11230;SDS011;5672;51.060;3.734;2022-09-09T16:18:26;2.97;;;1.90;;
11230;SDS011;5672;51.060;3.734;2022-09-09T16:20:58;2.13;;;1.93;;
11230;SDS011;5672;51.060;3.734;2022-09-09T16:23:25;2.73;;;2.40;;
11230;SDS011;5672;51.060;3.734;2022-09-09T16:25:54;3.27;;;2.30;;
11230;SDS011;5672;51.060;3.734;2022-09-09T16:28:20;2.83;;;2.10;;
11230;SDS011;5672;51.060;3.734;2022-09-09T16:30:47;3.10;;;2.60;;
11230;SDS011;5672;51.060;3.734;2022-09-09T16:33:13;5.73;;;3.63;;
11230;SDS011;5672;51.060;3.734;2022-09-09T16:35:39;5.50;;;2.47;;
11230;SDS011;5672;51.060;3.734;2022-09-09T16:38:05;4.20;;;2.67;;
11230;SDS011;5672;51.060;3.734;2022-09-09T16:40:35;2.97;;;2.50;;
11230;SDS011;5672;51.060;3.734;2022-09-09T16:43:01;3.37;;;2.03;;
11230;SDS011;5672;51.060;3.734;2022-09-09T16:45:27;3.00;;;2.20;;
11230;SDS011;5672;51.060;3.734;2022-09-09T16:47:54;2.90;;;2.30;;
11230;SDS011;5672;51.060;3.734;2022-09-09T16:50:20;2.93;;;2.30;;
11230;SDS011;5672;51.060;3.734;2022-09-09T16:52:46;2.60;;;2.20;;
11230;SDS011;5672;51.060;3.734;2022-09-09T16:55:12;4.70;;;2.40;;
11230;SDS011;5672;51.060;3.734;2022-09-09T16:57:39;9.50;;;4.60;;
11230;SDS011;5672;51.060;3.734;2022-09-09T17:00:06;3.70;;;3.33;;
11230;SDS011;5672;51.060;3.734;2022-09-09T17:02:33;11.80;;;4.87;;
11230;SDS011;5672;51.060;3.734;2022-09-09T17:04:59;17.03;;;6.13;;
11230;SDS011;5672;51.060;3.734;2022-09-09T17:07:25;10.00;;;5.20;;
11230;SDS011;5672;51.060;3.734;2022-09-09T17:09:52;12.63;;;4.97;;
11230;SDS011;5672;51.060;3.734;2022-09-09T17:12:19;36.70;;;11.45;;